createdAt,value
2023-04-08T00:00:45.574Z,68.00
2023-04-08T00:03:14.719Z,64.10
2023-04-08T00:05:42.475Z,71.25
2023-04-08T00:08:10.163Z,71.69
2023-04-08T00:10:37.872Z,66.65
2023-04-08T00:13:05.597Z,63.66
2023-04-08T00:15:33.359Z,70.42
2023-04-08T00:18:03.468Z,71.52
2023-04-08T00:20:32.467Z,75.27
2023-04-08T00:23:00.152Z,76.32
2023-04-08T00:25:27.859Z,69.24
2023-04-08T00:27:55.533Z,69.33
2023-04-08T00:30:23.392Z,59.17
2023-04-08T00:32:51.072Z,52.68
2023-04-08T00:35:18.774Z,59.16
2023-04-08T00:37:47.715Z,52.99
2023-04-08T00:40:15.339Z,57.93
2023-04-08T00:42:43.020Z,59.01
2023-04-08T00:45:11.311Z,54.56
2023-04-08T00:47:39.547Z,51.84
2023-04-08T00:50:09.744Z,46.96
2023-04-08T00:52:37.583Z,48.86
2023-04-08T00:55:07.595Z,50.67
2023-04-08T00:57:35.895Z,48.54
2023-04-08T01:00:05.030Z,49.01
2023-04-08T01:02:58.033Z,45.16
2023-04-08T01:05:35.930Z,44.62
2023-04-08T01:08:08.408Z,45.48
2023-04-08T01:10:41.729Z,36.39
2023-04-08T01:13:14.449Z,30.51
2023-04-08T01:15:44.390Z,38.42
2023-04-08T01:18:15.787Z,44.46
2023-04-08T01:20:45.397Z,47.25
2023-04-08T01:23:24.848Z,49.05
2023-04-08T01:25:55.620Z,50.47
2023-04-08T01:28:28.057Z,54.25
2023-04-08T01:30:59.209Z,52.94
2023-04-08T01:33:29.380Z,51.27
2023-04-08T01:35:59.005Z,51.87
2023-04-08T01:38:29.181Z,56.62
2023-04-08T01:41:01.202Z,65.75
2023-04-08T01:43:30.377Z,63.21
2023-04-08T01:45:59.862Z,62.07
2023-04-08T01:48:29.385Z,69.85
2023-04-08T01:50:59.262Z,68.43
2023-04-08T01:53:27.034Z,70.38
2023-04-08T01:56:03.389Z,74.22
2023-04-08T01:58:37.297Z,54.24
2023-04-08T02:01:10.188Z,60.72
2023-04-08T02:03:38.815Z,65.68
2023-04-08T02:06:06.545Z,59.61
2023-04-08T02:08:34.860Z,65.60
2023-04-08T02:11:04.501Z,63.42
2023-04-08T02:13:33.571Z,58.36
2023-04-08T02:16:06.814Z,64.15
2023-04-08T02:18:38.755Z,67.34
2023-04-08T02:21:12.917Z,62.07
2023-04-08T02:23:42.780Z,59.72
2023-04-08T02:26:15.607Z,59.42
2023-04-08T02:28:43.437Z,73.54
2023-04-08T02:31:12.980Z,71.86
2023-04-08T02:33:42.486Z,67.87
2023-04-08T02:36:12.389Z,80.15
2023-04-08T02:38:40.101Z,74.35
2023-04-08T02:41:07.745Z,73.64
2023-04-08T02:43:36.760Z,62.77
2023-04-08T02:46:04.658Z,62.63
2023-04-08T02:48:32.616Z,67.36
2023-04-08T02:51:00.241Z,60.94
2023-04-08T02:53:27.950Z,63.76
2023-04-08T02:55:55.618Z,57.68
2023-04-08T02:58:23.288Z,62.34
2023-04-08T03:00:52.333Z,57.25
2023-04-08T03:03:20.142Z,59.25
2023-04-08T03:05:47.937Z,68.02
2023-04-08T03:08:15.485Z,67.15
2023-04-08T03:10:43.237Z,63.99
2023-04-08T03:13:10.922Z,58.50
2023-04-08T03:15:38.532Z,68.09
2023-04-08T03:18:07.534Z,54.73
2023-04-08T03:20:35.281Z,56.48
2023-04-08T03:23:02.930Z,56.37
2023-04-08T03:25:30.616Z,63.08
2023-04-08T03:27:58.513Z,63.60
2023-04-08T03:30:26.532Z,53.40
2023-04-08T03:32:54.469Z,56.27
2023-04-08T03:35:23.852Z,56.16
2023-04-08T03:37:51.499Z,50.40
2023-04-08T03:40:19.602Z,49.62
2023-04-08T03:42:47.654Z,57.49
2023-04-08T03:45:15.304Z,52.68
2023-04-08T03:47:42.976Z,55.39
2023-04-08T03:50:11.389Z,56.19
2023-04-08T03:52:41.262Z,57.46
2023-04-08T03:55:09.518Z,48.66
2023-04-08T03:57:37.179Z,52.35
2023-04-08T04:00:06.156Z,52.51
2023-04-08T04:02:34.036Z,57.69
2023-04-08T04:05:02.135Z,59.61
2023-04-08T04:07:29.939Z,57.30
2023-04-08T04:09:59.066Z,57.33
2023-04-08T04:12:26.703Z,63.24
2023-04-08T04:14:54.361Z,49.58
2023-04-08T04:17:21.992Z,58.51
2023-04-08T04:19:49.633Z,62.97
2023-04-08T04:22:17.259Z,60.21
2023-04-08T04:24:47.520Z,59.47
2023-04-08T04:27:16.521Z,60.07
2023-04-08T04:29:44.254Z,61.48
2023-04-08T04:32:11.888Z,60.26
2023-04-08T04:34:39.534Z,55.09
2023-04-08T04:37:07.198Z,58.06
2023-04-08T04:39:35.916Z,62.23
2023-04-08T04:42:04.020Z,62.63
2023-04-08T04:44:33.050Z,67.29
2023-04-08T04:47:00.873Z,64.38
2023-04-08T04:49:28.618Z,69.29
2023-04-08T04:51:56.338Z,65.20
2023-04-08T04:54:24.208Z,57.52
2023-04-08T04:56:51.860Z,61.40
2023-04-08T04:59:19.439Z,55.97
2023-04-08T05:01:49.574Z,57.53
2023-04-08T05:04:17.152Z,57.20
2023-04-08T05:06:44.787Z,61.33
2023-04-08T05:09:12.411Z,51.04
2023-04-08T05:11:40.006Z,50.93
2023-04-08T05:14:07.649Z,56.37
2023-04-08T05:16:35.467Z,64.49
2023-04-08T05:19:04.626Z,59.38
2023-04-08T05:21:32.393Z,59.10
2023-04-08T05:24:00.017Z,61.76
2023-04-08T05:26:27.744Z,64.63
2023-04-08T05:28:55.396Z,79.93
2023-04-08T05:31:23.114Z,93.59
2023-04-08T05:33:50.853Z,102.66
2023-04-08T05:36:19.741Z,92.85
2023-04-08T05:38:47.521Z,115.27
2023-04-08T05:41:15.247Z,119.92
2023-04-08T05:43:42.924Z,111.96
2023-04-08T05:46:10.727Z,83.98
2023-04-08T05:48:38.385Z,99.12
2023-04-08T05:51:06.109Z,88.22
2023-04-08T05:53:35.083Z,87.82
2023-04-08T05:56:02.983Z,78.66
2023-04-08T05:58:30.609Z,68.72
2023-04-08T06:00:58.267Z,75.23
2023-04-08T06:03:26.084Z,67.55
2023-04-08T06:05:53.878Z,76.80
2023-04-08T06:08:21.556Z,73.10
2023-04-08T06:10:51.978Z,73.10
2023-04-08T06:13:19.683Z,71.04
2023-04-08T06:15:47.397Z,71.19
2023-04-08T06:18:15.040Z,81.97
2023-04-08T06:20:42.716Z,82.12
2023-04-08T06:23:10.298Z,80.24
2023-04-08T06:25:38.128Z,82.02
2023-04-08T06:28:07.092Z,79.84
2023-04-08T06:30:34.740Z,76.25
2023-04-08T06:33:02.335Z,81.99
2023-04-08T06:35:29.979Z,73.80
2023-04-08T06:37:58.097Z,74.35
2023-04-08T06:40:25.997Z,73.56
2023-04-08T06:42:53.753Z,59.27
2023-04-08T06:45:23.002Z,50.84
2023-04-08T06:47:50.768Z,51.20
2023-04-08T06:50:18.373Z,46.14
2023-04-08T06:52:45.992Z,39.17
2023-04-08T06:55:13.733Z,41.35
2023-04-08T06:57:41.372Z,77.81
2023-04-08T07:00:12.435Z,58.90
2023-04-08T07:02:41.562Z,53.92
2023-04-08T07:05:09.714Z,83.01
2023-04-08T07:07:37.450Z,42.11
2023-04-08T07:10:05.824Z,40.79
2023-04-08T07:12:34.416Z,42.58
2023-04-08T07:15:02.707Z,36.23
2023-04-08T07:17:30.422Z,32.27
2023-04-08T07:19:59.360Z,23.63
2023-04-08T07:22:27.001Z,30.26
2023-04-08T07:24:54.685Z,27.84
2023-04-08T07:27:22.320Z,30.75
2023-04-08T07:29:52.855Z,34.45
2023-04-08T07:32:20.498Z,44.19
2023-04-08T07:34:48.417Z,36.70
2023-04-08T07:37:17.647Z,33.58
2023-04-08T07:39:45.597Z,38.62
2023-04-08T07:42:15.540Z,50.24
2023-04-08T07:44:43.177Z,28.41
2023-04-08T07:47:10.854Z,27.84
2023-04-08T07:49:38.787Z,27.85
2023-04-08T07:52:06.499Z,27.27
2023-04-08T07:54:35.455Z,23.34
2023-04-08T07:57:03.272Z,32.62
2023-04-08T07:59:32.127Z,30.02
2023-04-08T08:01:59.859Z,32.37
2023-04-08T08:04:27.691Z,43.24
2023-04-08T08:06:55.458Z,15.39
2023-04-08T08:09:23.115Z,28.42
2023-04-08T08:11:52.467Z,27.39
2023-04-08T08:14:20.089Z,27.17
2023-04-08T08:16:47.997Z,22.11
2023-04-08T08:19:15.610Z,19.04
2023-04-08T08:21:43.501Z,19.47
2023-04-08T08:24:11.213Z,19.66
2023-04-08T08:26:38.919Z,25.65
2023-04-08T08:29:08.074Z,42.00
2023-04-08T08:31:35.892Z,34.21
2023-04-08T08:34:03.665Z,32.43
2023-04-08T08:36:32.759Z,29.94
2023-04-08T08:39:01.299Z,40.65
2023-04-08T08:41:33.704Z,45.12
2023-04-08T08:44:02.726Z,42.03
2023-04-08T08:46:31.980Z,37.57
2023-04-08T08:49:00.264Z,40.10
2023-04-08T08:51:29.872Z,41.57
2023-04-08T08:54:02.511Z,48.91
2023-04-08T08:56:30.428Z,33.75
2023-04-08T08:58:57.980Z,40.02
2023-04-08T09:01:33.230Z,31.35
2023-04-08T09:04:15.406Z,35.05
2023-04-08T09:06:44.123Z,40.63
2023-04-08T09:09:11.824Z,19.49
2023-04-08T09:11:42.138Z,17.06
2023-04-08T09:14:20.918Z,74.68
2023-04-08T09:16:50.871Z,17.43
2023-04-08T09:19:19.255Z,16.20
2023-04-08T09:22:04.892Z,21.82
2023-04-08T09:24:32.855Z,25.04
2023-04-08T09:27:02.034Z,21.10
2023-04-08T09:29:33.131Z,16.42
2023-04-08T09:32:03.877Z,17.63
2023-04-08T09:34:31.544Z,40.57
2023-04-08T09:36:59.747Z,31.36
2023-04-08T09:39:27.337Z,28.96
2023-04-08T09:42:00.552Z,31.98
2023-04-08T09:44:29.464Z,39.30
2023-04-08T09:47:09.903Z,26.33
2023-04-08T09:49:43.681Z,20.07
2023-04-08T09:52:15.088Z,20.05
2023-04-08T09:54:52.370Z,19.85
2023-04-08T09:57:25.855Z,21.15
2023-04-08T10:00:10.810Z,23.32
2023-04-08T10:02:47.693Z,18.60
2023-04-08T10:05:18.111Z,16.32
2023-04-08T10:07:49.328Z,17.23
2023-04-08T10:10:17.502Z,17.94
2023-04-08T10:12:45.827Z,18.57
2023-04-08T10:15:24.130Z,15.88
2023-04-08T10:17:53.663Z,36.16
2023-04-08T10:20:41.586Z,19.98
2023-04-08T10:23:11.226Z,34.98
2023-04-08T10:25:40.000Z,15.90
2023-04-08T10:28:26.476Z,17.55
2023-04-08T10:30:56.065Z,13.00
2023-04-08T10:33:32.298Z,19.09
2023-04-08T10:36:08.480Z,17.53
2023-04-08T10:38:36.180Z,22.17
2023-04-08T10:41:04.265Z,41.63
2023-04-08T10:43:33.731Z,31.31
2023-04-08T10:46:01.482Z,14.42
2023-04-08T10:48:30.899Z,15.92
2023-04-08T10:51:00.481Z,42.70
2023-04-08T10:53:29.590Z,13.42
2023-04-08T10:56:07.892Z,15.33
2023-04-08T10:58:36.162Z,14.37
2023-04-08T11:01:05.188Z,21.58
2023-04-08T11:03:35.422Z,16.44
2023-04-08T11:06:03.907Z,33.96
2023-04-08T11:08:33.452Z,16.02
2023-04-08T11:11:01.992Z,15.90
2023-04-08T11:13:30.465Z,16.91
2023-04-08T11:15:59.937Z,12.19
2023-04-08T11:18:28.619Z,103.78
2023-04-08T11:21:00.227Z,21.69
2023-04-08T11:23:29.246Z,21.90
2023-04-08T11:25:58.003Z,18.52
2023-04-08T11:28:26.195Z,29.04
2023-04-08T11:30:55.124Z,16.32
2023-04-08T11:33:25.075Z,21.55
2023-04-08T11:35:53.262Z,26.63
2023-04-08T11:38:24.642Z,23.26
2023-04-08T11:40:53.342Z,11.61
2023-04-08T11:43:21.256Z,9.29
2023-04-08T11:45:49.206Z,7.61
2023-04-08T11:48:17.384Z,7.63
2023-04-08T11:50:45.366Z,7.41
2023-04-08T11:53:18.765Z,7.07
2023-04-08T11:55:48.661Z,8.05
2023-04-08T11:58:16.468Z,8.83
2023-04-08T12:00:44.867Z,9.97
2023-04-08T12:03:12.625Z,8.76
2023-04-08T12:05:40.706Z,7.82
2023-04-08T12:08:08.303Z,8.47
2023-04-08T12:10:36.260Z,8.57
2023-04-08T12:13:05.326Z,8.97
2023-04-08T12:15:32.952Z,8.66
2023-04-08T12:18:00.526Z,10.53
2023-04-08T12:20:28.376Z,10.90
2023-04-08T12:22:55.984Z,10.88
2023-04-08T12:25:25.323Z,8.17
2023-04-08T12:27:54.543Z,6.94
2023-04-08T12:30:23.478Z,7.70
2023-04-08T12:32:51.564Z,8.14
2023-04-08T12:35:20.662Z,6.32
2023-04-08T12:37:48.295Z,6.34
2023-04-08T12:40:16.349Z,8.02
2023-04-08T12:42:43.917Z,4.63
2023-04-08T12:45:11.565Z,6.35
2023-04-08T12:47:40.584Z,7.88
2023-04-08T12:50:09.042Z,6.64
2023-04-08T12:52:36.634Z,8.20
2023-04-08T12:55:04.827Z,5.91
2023-04-08T12:57:32.507Z,6.44
2023-04-08T13:00:00.136Z,6.91
2023-04-08T13:02:27.920Z,6.59
2023-04-08T13:04:57.279Z,8.11
2023-04-08T13:07:25.042Z,7.57
2023-04-08T13:09:52.599Z,6.14
2023-04-08T13:12:21.185Z,10.07
2023-04-08T13:14:48.779Z,6.23
2023-04-08T13:17:16.461Z,4.16
2023-04-08T13:19:44.233Z,4.04
2023-04-08T13:22:13.804Z,4.16
2023-04-08T13:24:41.898Z,5.88
2023-04-08T13:27:10.192Z,7.57
2023-04-08T13:29:37.812Z,7.04
2023-04-08T13:32:05.603Z,6.56
2023-04-08T13:34:33.174Z,5.22
2023-04-08T13:37:00.746Z,6.46
2023-04-08T13:39:29.707Z,3.96
2023-04-08T13:41:57.255Z,4.39
2023-04-08T13:44:25.151Z,3.94
2023-04-08T13:46:52.735Z,3.87
2023-04-08T13:49:20.380Z,3.96
2023-04-08T13:51:47.888Z,3.65
2023-04-08T13:54:15.434Z,3.88
2023-04-08T13:56:44.282Z,4.16
2023-04-08T13:59:11.843Z,4.98
2023-04-08T14:01:39.611Z,5.52
2023-04-08T14:04:07.209Z,5.72
2023-04-08T14:06:34.784Z,7.52
2023-04-08T14:09:02.476Z,5.82
2023-04-08T14:11:30.079Z,4.29
2023-04-08T14:13:58.953Z,4.65
2023-04-08T14:16:27.557Z,8.78
2023-04-08T14:18:55.183Z,5.86
2023-04-08T14:21:22.833Z,6.11
2023-04-08T14:23:50.589Z,5.84
2023-04-08T14:26:18.484Z,7.12
2023-04-08T14:28:46.098Z,9.95
2023-04-08T14:31:15.640Z,12.91
2023-04-08T14:33:43.399Z,12.53
2023-04-08T14:36:12.016Z,10.50
2023-04-08T14:38:39.977Z,8.03
2023-04-08T14:41:08.735Z,6.59
2023-04-08T14:43:36.364Z,6.53
2023-04-08T14:46:04.373Z,11.02
2023-04-08T14:48:36.690Z,6.77
2023-04-08T14:51:04.543Z,7.83
2023-04-08T14:53:32.596Z,7.76
2023-04-08T14:56:01.758Z,7.49
2023-04-08T14:58:29.377Z,7.76
2023-04-08T15:00:57.041Z,6.85
2023-04-08T15:03:24.723Z,5.78
2023-04-08T15:05:53.753Z,6.18
2023-04-08T15:08:21.517Z,7.65
2023-04-08T15:10:49.172Z,7.31
2023-04-08T15:13:16.856Z,6.23
2023-04-08T15:15:45.073Z,6.75
2023-04-08T15:18:13.725Z,6.05
2023-04-08T15:20:41.431Z,5.79
2023-04-08T15:23:10.451Z,8.06
2023-04-08T15:25:38.249Z,7.89
2023-04-08T15:28:05.848Z,8.20
2023-04-08T15:30:33.469Z,7.22
2023-04-08T15:33:02.960Z,8.01
2023-04-08T15:35:31.170Z,9.84
2023-04-08T15:38:00.293Z,11.88
2023-04-08T15:40:29.618Z,23.99
2023-04-08T15:42:57.254Z,36.42
2023-04-08T15:45:24.893Z,24.51
2023-04-08T15:47:52.654Z,25.31
2023-04-08T15:50:20.768Z,30.72
2023-04-08T15:52:49.760Z,31.98
2023-04-08T15:55:17.734Z,37.05
2023-04-08T15:57:46.816Z,34.84
2023-04-08T16:00:16.511Z,46.26
2023-04-08T16:02:44.719Z,75.29
2023-04-08T16:05:12.581Z,31.92
2023-04-08T16:07:40.266Z,22.84
2023-04-08T16:10:08.627Z,32.47
2023-04-08T16:12:36.281Z,36.70
2023-04-08T16:15:06.433Z,37.03
2023-04-08T16:17:34.397Z,42.17
2023-04-08T16:20:02.034Z,44.85
2023-04-08T16:22:29.694Z,52.09
2023-04-08T16:24:57.501Z,65.71
2023-04-08T16:27:25.040Z,67.18
2023-04-08T16:29:52.981Z,54.62
2023-04-08T16:32:22.033Z,53.38
2023-04-08T16:34:49.818Z,48.20
2023-04-08T16:37:18.599Z,39.33
2023-04-08T16:39:46.494Z,43.10
2023-04-08T16:42:14.533Z,42.07
2023-04-08T16:44:43.931Z,55.73
2023-04-08T16:47:11.486Z,45.05
2023-04-08T16:49:43.871Z,18.87
2023-04-08T16:52:11.463Z,13.88
2023-04-08T16:54:39.134Z,18.58
2023-04-08T16:57:09.694Z,16.39
2023-04-08T16:59:37.402Z,16.30
2023-04-08T17:02:05.089Z,16.02
2023-04-08T17:04:32.644Z,13.94
2023-04-08T17:07:01.874Z,13.88
2023-04-08T17:09:29.501Z,22.08
2023-04-08T17:11:57.290Z,59.11
2023-04-08T17:14:25.106Z,14.75
2023-04-08T17:16:53.103Z,37.55
2023-04-08T17:19:21.119Z,15.49
2023-04-08T17:21:51.360Z,15.34
2023-04-08T17:24:20.960Z,15.80
2023-04-08T17:26:49.174Z,15.43
2023-04-08T17:29:16.802Z,14.54
2023-04-08T17:31:44.650Z,15.14
2023-04-08T17:34:13.676Z,55.62
2023-04-08T17:36:41.587Z,11.37
2023-04-08T17:39:09.848Z,22.07
2023-04-08T17:41:40.908Z,9.33
2023-04-08T17:44:09.412Z,21.90
2023-04-08T17:46:39.398Z,13.59
2023-04-08T17:49:08.077Z,11.88
2023-04-08T17:51:35.634Z,12.36
2023-04-08T17:54:03.428Z,11.76
2023-04-08T17:56:31.382Z,34.79
2023-04-08T17:59:02.637Z,12.33
2023-04-08T18:01:30.417Z,12.57
2023-04-08T18:03:58.240Z,18.74
2023-04-08T18:06:26.021Z,15.43
2023-04-08T18:08:54.059Z,20.17
2023-04-08T18:11:21.717Z,15.94
2023-04-08T18:13:49.473Z,16.35
2023-04-08T18:16:21.282Z,17.67
2023-04-08T18:18:49.316Z,21.27
2023-04-08T18:21:17.009Z,21.65
2023-04-08T18:23:44.556Z,23.42
2023-04-08T18:26:12.204Z,19.20
2023-04-08T18:28:40.099Z,188.64
2023-04-08T18:31:09.990Z,32.26
2023-04-08T18:33:39.676Z,94.25
2023-04-08T18:36:08.959Z,19.83
2023-04-08T18:38:36.620Z,35.12
2023-04-08T18:41:04.727Z,24.08
2023-04-08T18:43:32.808Z,30.83
2023-04-08T18:46:00.608Z,31.00
2023-04-08T18:48:29.428Z,29.44
2023-04-08T18:50:58.600Z,27.34
2023-04-08T18:53:26.448Z,23.97
2023-04-08T18:55:54.052Z,24.30
2023-04-08T18:58:21.791Z,25.44
2023-04-08T19:00:50.843Z,26.14
2023-04-08T19:03:18.675Z,25.40
2023-04-08T19:05:46.383Z,28.15
2023-04-08T19:08:15.746Z,28.42
2023-04-08T19:10:43.813Z,33.38
2023-04-08T19:13:13.954Z,45.89
2023-04-08T19:15:43.353Z,35.76
2023-04-08T19:18:11.060Z,28.72
2023-04-08T19:20:38.663Z,26.91
2023-04-08T19:23:06.310Z,30.95
2023-04-08T19:25:35.920Z,37.13
2023-04-08T19:28:03.605Z,47.60
2023-04-08T19:30:35.997Z,35.00
2023-04-08T19:33:04.453Z,24.00
2023-04-08T19:35:32.169Z,31.41
2023-04-08T19:38:01.370Z,25.25
2023-04-08T19:40:29.118Z,36.77
2023-04-08T19:42:58.118Z,26.68
2023-04-08T19:45:26.016Z,32.50
2023-04-08T19:47:53.712Z,26.55
2023-04-08T19:50:22.436Z,28.48
2023-04-08T19:52:50.177Z,36.46
2023-04-08T19:55:18.029Z,31.68
2023-04-08T19:57:45.850Z,31.61
2023-04-08T20:00:15.110Z,33.82
2023-04-08T20:02:43.369Z,35.98
2023-04-08T20:05:12.506Z,40.71
2023-04-08T20:07:41.189Z,39.59
2023-04-08T20:10:10.657Z,33.73
2023-04-08T20:12:38.904Z,40.76
2023-04-08T20:15:09.375Z,34.42
2023-04-08T20:18:03.492Z,33.03
2023-04-08T20:20:31.333Z,49.20
2023-04-08T20:23:01.597Z,58.13
2023-04-08T20:25:29.300Z,33.00
2023-04-08T20:27:56.996Z,37.76
2023-04-08T20:30:24.854Z,40.63
2023-04-08T20:32:53.832Z,41.06
2023-04-08T20:35:21.541Z,45.06
2023-04-08T20:37:49.368Z,37.88
2023-04-08T20:40:18.417Z,35.10
2023-04-08T20:42:46.450Z,53.76
2023-04-08T20:45:14.055Z,32.71
2023-04-08T20:47:44.127Z,31.34
2023-04-08T20:50:13.396Z,53.13
2023-04-08T20:52:41.341Z,33.95
2023-04-08T20:55:10.222Z,32.20
2023-04-08T20:57:37.793Z,36.62
2023-04-08T21:00:06.634Z,46.57
2023-04-08T21:02:34.436Z,72.77
2023-04-08T21:05:02.149Z,46.26
2023-04-08T21:07:31.323Z,91.94
2023-04-08T21:10:00.193Z,29.73
2023-04-08T21:12:27.821Z,32.86
2023-04-08T21:14:55.653Z,32.88
2023-04-08T21:17:24.668Z,29.15
2023-04-08T21:19:52.300Z,31.81
2023-04-08T21:22:19.871Z,42.31
2023-04-08T21:24:48.768Z,46.79
2023-04-08T21:27:16.453Z,46.76
2023-04-08T21:29:45.445Z,57.29
2023-04-08T21:32:13.467Z,55.99
2023-04-08T21:34:41.118Z,26.94
2023-04-08T21:37:08.676Z,45.24
2023-04-08T21:39:36.355Z,48.82
2023-04-08T21:42:05.457Z,41.88
2023-04-08T21:44:33.001Z,36.23
2023-04-08T21:47:02.765Z,41.09
2023-04-08T21:49:30.349Z,49.49
2023-04-08T21:51:58.357Z,47.09
2023-04-08T21:54:27.672Z,38.88
2023-04-08T21:56:55.637Z,37.23
2023-04-08T21:59:24.830Z,43.78
2023-04-08T22:01:52.439Z,31.27
2023-04-08T22:04:20.108Z,36.47
2023-04-08T22:06:48.615Z,35.02
2023-04-08T22:09:16.526Z,38.44
2023-04-08T22:11:44.241Z,51.33
2023-04-08T22:14:11.882Z,50.04
2023-04-08T22:16:40.824Z,34.83
2023-04-08T22:19:10.206Z,25.50
2023-04-08T22:21:37.898Z,31.79
2023-04-08T22:24:05.719Z,40.36
2023-04-08T22:26:33.468Z,50.05
2023-04-08T22:29:02.295Z,42.85
2023-04-08T22:31:30.334Z,41.12
2023-04-08T22:33:59.317Z,45.58
2023-04-08T22:36:26.954Z,26.10
2023-04-08T22:38:54.656Z,46.37
2023-04-08T22:41:23.861Z,33.72
2023-04-08T22:43:51.512Z,33.45
2023-04-08T22:46:19.244Z,37.27
2023-04-08T22:48:47.787Z,30.70
2023-04-08T22:51:16.813Z,30.54
2023-04-08T22:53:44.500Z,45.43
2023-04-08T22:56:12.112Z,31.94
2023-04-08T22:58:39.733Z,31.84
2023-04-08T23:01:11.863Z,31.15
2023-04-08T23:03:39.640Z,32.37
2023-04-08T23:06:07.543Z,28.39
2023-04-08T23:08:36.507Z,29.00
2023-04-08T23:11:04.357Z,34.69
2023-04-08T23:13:32.009Z,30.08
2023-04-08T23:15:59.797Z,35.95
2023-04-08T23:18:27.729Z,41.51
2023-04-08T23:20:56.724Z,34.43
2023-04-08T23:23:25.328Z,45.56
2023-04-08T23:25:55.762Z,42.34
2023-04-08T23:28:24.073Z,37.01
2023-04-08T23:30:51.724Z,55.75
2023-04-08T23:33:19.300Z,41.36
2023-04-08T23:35:47.148Z,70.81
2023-04-08T23:38:14.821Z,31.90
2023-04-08T23:40:42.588Z,34.32
2023-04-08T23:43:12.773Z,29.79
2023-04-08T23:45:40.545Z,33.07
2023-04-08T23:48:10.059Z,30.91
2023-04-08T23:50:40.253Z,30.29
2023-04-08T23:53:07.889Z,31.07
2023-04-08T23:55:35.514Z,37.57
2023-04-08T23:58:03.143Z,41.29
